Albion, Ohio
Current Conditions -  °F | °C
As of 10:56 AM on Saturday 25 Oct 2014 (Local Time) from KBJJ Reporting Station
Clear Clear  
Wind Chill: 58°   Ceiling: Unl
Heat Index: 58°   Visibility: 8mi
Dew Point: 48°   Wind: 13mph
Humidity: 70%   Direction: 220°SW
Pressure: 29.89"   Gusts: NA
Location:  40.9441°N, 82.1006°W
Report Text: KBJJ 251456Z AUTO 22011KT 8SM CLR 14/09 A2989 RMK AO2 SLP122 T01440089 58017 TSNO
Loading
Personal Weather Stations






























Interactive Weather Map New forecast layout! Learn more

10-Day Weather Forecast

Advertisements
Track Severe Weather on mobile